Airfield :
LOGIN :

Register | Disclaimer

   EN    FR    IT 

 










Legend :    VFR   Marginal VFR   IFR   Intensive IFR   Very Intensive IFR
Visi :
Ceiling :
>= 8 km
>= 3000ft
5 to 8 km
1000 to 3000 ft
1500m to 5 km
500 to 1000 ft
800 to 1500m
200 to 500 ft
< 800m
< 200 ft
Symbols :   Thunderstorms  Fog  Heavy snow  Heavy precipitations  Wind > 20 kt
SIGMETs :     Misc.  Thunderstorms  Icing  Turbulence  Mountain Waves  Volcanic Ashes







- Airport Elevation : 156 ft
- IATA code : LCC


LIBN - Lecce Galatine (military)

CURRENT METAR :
  • 191555Z 12010KT 9999 FEW010 SCT025 16/15 Q1009 RMK OVC BKN070 VIS MIN 9999 WIND THR14 12010KT WIND THR32 12010KT BLU

EXPIRED METARs :
  • 191455Z 13009KT 9999 SCT025 16/14 Q1009 RMK OVC BKN070 VIS MIN 9999 WIND THR14 13010KT WIND THR32 13010KT BLU

TAF TAF LIBN
Valid from the 19 at 15:00 until the 20 at 00:00 UTC


191400Z 1915/1924 12010KT 9999 SCT025 SCT035
BECMG 1917/1918 18015KT
TEMPO 1919/1924 18020G30KT
No reported NOTAMs for that airfield.
1 SIGMET reported for the Brindisi FIR (LIBB) :
 
Severe turbulence
LIBB SIGMET 1 VALID 191700/192000 LIIB
LIBB BRINDISI FIR SEV TURB FCST WI N4232 E01325 - N4254 E01524 - N4221 E01619 - N4149 E01732 - N4040 E01524 - N4110 E01506 - N4123 E01426 - N4232 E01325 FL240/360 STNR NC=



MET'MAP, your aeronautical weather chart ! - Copyright ORBIFLY December 2007 - Disclaimer

ORBIFLY MET'MAP TEAM :

Programming & Development : Alexandra Zaïnal
Concept & Development : Baudouin d'Aumeries
Co-Development & Prog : Marc-Olivier Méhu
Technical & hardware support : Manuel Goepfert

Contact : metmap@orbifly.com




SOURCES & CREDITS :

   NOAA